createdAt,value
2016-12-18T00:00:15.311Z,2.21
2016-12-18T00:01:26.045Z,2.25
2016-12-18T00:02:36.787Z,2.19
2016-12-18T00:03:47.491Z,2.3
2016-12-18T00:04:58.205Z,2.22
2016-12-18T00:06:09.226Z,2.22
2016-12-18T00:07:19.946Z,2.25
2016-12-18T00:08:30.667Z,2.28
2016-12-18T00:09:41.391Z,2.19
2016-12-18T00:10:52.087Z,2.26
2016-12-18T00:12:02.813Z,2.25
2016-12-18T00:13:13.556Z,2.28
2016-12-18T00:14:24.300Z,2.22
2016-12-18T00:15:35.025Z,2.25
2016-12-18T00:16:45.750Z,2.25
2016-12-18T00:17:56.488Z,2.23
2016-12-18T00:19:07.231Z,2.34
2016-12-18T00:20:17.959Z,2.32
2016-12-18T00:21:28.680Z,2.36
2016-12-18T00:22:39.376Z,2.36
2016-12-18T00:23:50.101Z,2.33
2016-12-18T00:25:00.839Z,2.33
2016-12-18T00:26:11.542Z,2.4
2016-12-18T00:27:22.302Z,2.37
2016-12-18T00:28:33.053Z,2.4
2016-12-18T00:29:43.758Z,2.25
2016-12-18T00:30:54.502Z,2.36
2016-12-18T00:32:05.237Z,2.39
2016-12-18T00:33:15.986Z,2.32
2016-12-18T00:34:26.712Z,2.36
2016-12-18T00:35:37.437Z,2.41
2016-12-18T00:36:48.159Z,2.41
2016-12-18T00:37:58.945Z,2.37
2016-12-18T00:39:09.662Z,2.39
2016-12-18T00:40:20.372Z,2.37
2016-12-18T00:41:31.105Z,2.44
2016-12-18T00:42:41.859Z,2.43
2016-12-18T00:43:52.575Z,2.41
2016-12-18T00:45:03.322Z,2.37
2016-12-18T00:46:14.077Z,2.41
2016-12-18T00:47:24.792Z,2.36
2016-12-18T00:48:35.513Z,2.57
2016-12-18T00:49:46.242Z,2.4
2016-12-18T00:50:56.972Z,2.55
2016-12-18T00:52:07.721Z,2.46
2016-12-18T00:53:18.451Z,2.52
2016-12-18T00:54:29.174Z,2.44
2016-12-18T00:55:39.906Z,2.47
2016-12-18T00:56:50.631Z,2.52
2016-12-18T00:58:01.377Z,2.57
2016-12-18T00:59:12.129Z,2.55
2016-12-18T01:00:22.851Z,2.52
2016-12-18T01:01:33.598Z,2.51
2016-12-18T01:02:44.312Z,2.61
2016-12-18T01:03:55.015Z,2.65
2016-12-18T01:05:06.034Z,2.68
2016-12-18T01:06:16.755Z,2.65
2016-12-18T01:07:27.496Z,2.62
2016-12-18T01:08:38.227Z,2.61
2016-12-18T01:09:48.970Z,2.62
2016-12-18T01:10:59.687Z,2.65
2016-12-18T01:12:10.408Z,2.65
2016-12-18T01:13:21.109Z,2.65
2016-12-18T01:14:31.817Z,2.73
2016-12-18T01:15:42.526Z,2.76
2016-12-18T01:16:53.245Z,2.77
2016-12-18T01:18:03.981Z,2.72
2016-12-18T01:19:14.726Z,2.75
2016-12-18T01:20:25.462Z,2.75
2016-12-18T01:21:36.196Z,2.76
2016-12-18T01:22:46.940Z,2.75
2016-12-18T01:23:57.714Z,2.69
2016-12-18T01:25:08.459Z,2.75
2016-12-18T01:26:19.216Z,2.8
2016-12-18T01:27:29.931Z,2.83
2016-12-18T01:28:40.648Z,2.8
2016-12-18T01:29:51.406Z,2.82
2016-12-18T01:31:02.139Z,2.83
2016-12-18T01:32:12.857Z,2.85
2016-12-18T01:33:23.578Z,2.87
2016-12-18T01:34:34.336Z,2.83
2016-12-18T01:35:45.074Z,2.8
2016-12-18T01:36:55.799Z,2.88
2016-12-18T01:38:06.540Z,2.88
2016-12-18T01:39:17.316Z,2.85
2016-12-18T01:40:28.065Z,2.91
2016-12-18T01:41:38.788Z,2.9
2016-12-18T01:42:49.531Z,2.95
2016-12-18T01:44:00.271Z,2.91
2016-12-18T01:45:10.992Z,2.95
2016-12-18T01:46:21.718Z,2.93
2016-12-18T01:47:32.433Z,2.91
2016-12-18T01:48:43.152Z,2.97
2016-12-18T01:49:53.873Z,2.91
2016-12-18T01:51:04.622Z,3.05
2016-12-18T01:52:15.326Z,3.01
2016-12-18T01:53:26.035Z,2.83
2016-12-18T01:54:36.756Z,2.97
2016-12-18T01:55:47.504Z,2.83
2016-12-18T01:56:58.231Z,2.97
2016-12-18T01:58:08.978Z,3.03
2016-12-18T01:59:19.716Z,3.05
2016-12-18T02:00:30.440Z,2.98
2016-12-18T02:01:41.165Z,2.9
2016-12-18T02:02:51.889Z,3.03
2016-12-18T02:04:02.650Z,2.93
2016-12-18T02:05:13.399Z,2.9
2016-12-18T02:06:24.124Z,2.93
2016-12-18T02:07:34.866Z,2.88
2016-12-18T02:08:45.570Z,3
2016-12-18T02:09:56.313Z,2.85
2016-12-18T02:11:07.033Z,2.9
2016-12-18T02:12:17.775Z,3.01
2016-12-18T02:13:28.504Z,2.98
2016-12-18T02:14:39.238Z,2.94
2016-12-18T02:15:49.967Z,3.01
2016-12-18T02:17:00.666Z,2.95
2016-12-18T02:18:11.405Z,2.98
2016-12-18T02:19:22.134Z,2.9
2016-12-18T02:20:32.871Z,3.05
2016-12-18T02:21:43.601Z,2.95
2016-12-18T02:22:54.310Z,3.01
2016-12-18T02:24:05.341Z,3.03
2016-12-18T02:25:16.059Z,3.05
2016-12-18T02:26:26.833Z,3.01
2016-12-18T02:27:37.557Z,3.05
2016-12-18T02:28:48.292Z,3.05
2016-12-18T02:29:59.039Z,2.97
2016-12-18T02:31:09.735Z,2.97
2016-12-18T02:32:20.453Z,3.03
2016-12-18T02:33:31.186Z,3.01
2016-12-18T02:34:41.923Z,3.09
2016-12-18T02:35:52.648Z,3.03
2016-12-18T02:37:03.369Z,3.08
2016-12-18T02:38:14.083Z,3.03
2016-12-18T02:39:24.814Z,3.09
2016-12-18T02:40:35.549Z,3.03
2016-12-18T02:41:46.298Z,3
2016-12-18T02:42:57.045Z,3.21
2016-12-18T02:44:07.741Z,3.06
2016-12-18T02:45:18.487Z,3.08
2016-12-18T02:46:29.212Z,3.12
2016-12-18T02:47:39.937Z,3.19
2016-12-18T02:48:50.687Z,3.16
2016-12-18T02:50:01.700Z,3.15
2016-12-18T02:51:12.463Z,3.11
2016-12-18T02:52:23.196Z,3.22
2016-12-18T02:53:34.243Z,3.24
2016-12-18T02:54:44.980Z,3.24
2016-12-18T02:55:55.698Z,3.21
2016-12-18T02:57:06.435Z,3.22
2016-12-18T02:58:17.164Z,3.22
2016-12-18T02:59:27.896Z,3.27
2016-12-18T03:00:38.632Z,3.4
2016-12-18T03:01:49.340Z,3.3
2016-12-18T03:03:00.065Z,3.31
2016-12-18T03:04:10.778Z,3.36
2016-12-18T03:05:21.501Z,3.33
2016-12-18T03:06:32.244Z,3.36
2016-12-18T03:07:42.986Z,3.29
2016-12-18T03:08:53.721Z,3.27
2016-12-18T03:10:04.462Z,3.31
2016-12-18T03:11:15.183Z,3.31
2016-12-18T03:12:25.928Z,3.31
2016-12-18T03:13:36.645Z,3.27
2016-12-18T03:14:47.388Z,3.34
2016-12-18T03:15:58.163Z,3.26
2016-12-18T03:17:08.906Z,3.29
2016-12-18T03:18:19.632Z,3.4
2016-12-18T03:19:30.368Z,3.26
2016-12-18T03:20:41.102Z,3.36
2016-12-18T03:21:51.848Z,3.33
2016-12-18T03:23:02.566Z,3.41
2016-12-18T03:24:13.289Z,3.41
2016-12-18T03:25:24.034Z,3.34
2016-12-18T03:26:34.755Z,3.36
2016-12-18T03:27:45.476Z,3.37
2016-12-18T03:28:56.195Z,3.37
2016-12-18T03:30:06.907Z,3.34
2016-12-18T03:31:17.636Z,3.45
2016-12-18T03:32:28.327Z,3.46
2016-12-18T03:33:39.057Z,3.37
2016-12-18T03:34:49.795Z,3.41
2016-12-18T03:36:00.548Z,3.36
2016-12-18T03:37:11.291Z,3.43
2016-12-18T03:38:22.041Z,3.45
2016-12-18T03:39:32.801Z,3.41
2016-12-18T03:40:43.530Z,3.43
2016-12-18T03:41:54.267Z,3.41
2016-12-18T03:43:04.998Z,3.4
2016-12-18T03:44:15.734Z,3.48
2016-12-18T03:45:26.465Z,3.45
2016-12-18T03:46:37.206Z,3.48
2016-12-18T03:47:47.921Z,3.45
2016-12-18T03:48:58.643Z,3.46
2016-12-18T03:50:09.346Z,3.46
2016-12-18T03:51:20.085Z,3.53
2016-12-18T03:52:30.805Z,3.49
2016-12-18T03:53:41.514Z,3.49
2016-12-18T03:54:52.247Z,3.5
2016-12-18T03:56:02.980Z,3.46
2016-12-18T03:57:13.717Z,3.58
2016-12-18T03:58:24.446Z,3.59
2016-12-18T03:59:35.213Z,3.58
2016-12-18T04:00:45.930Z,3.63
2016-12-18T04:01:56.633Z,3.5
2016-12-18T04:03:07.668Z,3.66
2016-12-18T04:04:18.400Z,3.7
2016-12-18T04:05:29.160Z,3.68
2016-12-18T04:06:39.906Z,3.67
2016-12-18T04:07:50.630Z,3.64
2016-12-18T04:09:01.348Z,3.76
2016-12-18T04:10:12.097Z,3.77
2016-12-18T04:11:22.801Z,3.76
2016-12-18T04:12:33.512Z,3.77
2016-12-18T04:13:44.235Z,3.74
2016-12-18T04:14:54.965Z,3.71
2016-12-18T04:16:05.699Z,3.73
2016-12-18T04:17:16.458Z,3.82
2016-12-18T04:18:27.178Z,3.82
2016-12-18T04:19:37.916Z,3.82
2016-12-18T04:20:48.665Z,3.78
2016-12-18T04:21:59.404Z,3.77
2016-12-18T04:23:10.160Z,3.89
2016-12-18T04:24:20.895Z,3.88
2016-12-18T04:25:31.604Z,3.86
2016-12-18T04:26:42.316Z,3.88
2016-12-18T04:27:53.041Z,3.88
2016-12-18T04:29:03.745Z,3.86
2016-12-18T04:30:14.486Z,3.92
2016-12-18T04:31:25.181Z,3.94
2016-12-18T04:32:35.878Z,3.92
2016-12-18T04:33:46.589Z,4.04
2016-12-18T04:34:57.297Z,4.02
2016-12-18T04:36:08.355Z,4.02
2016-12-18T04:37:19.106Z,4
2016-12-18T04:38:30.173Z,4.09
2016-12-18T04:39:40.894Z,4.09
2016-12-18T04:40:51.640Z,4.02
2016-12-18T04:42:02.372Z,4.13
2016-12-18T04:43:13.115Z,4.1
2016-12-18T04:44:23.835Z,4.04
2016-12-18T04:45:34.577Z,4.04
2016-12-18T04:46:45.323Z,4.13
2016-12-18T04:47:56.091Z,4.09
2016-12-18T04:49:07.140Z,4.13
2016-12-18T04:50:17.883Z,4.09
2016-12-18T04:51:28.611Z,4.12
2016-12-18T04:52:39.334Z,4.12
2016-12-18T04:53:50.053Z,4.1
2016-12-18T04:55:00.775Z,4.22
2016-12-18T04:56:11.513Z,4.21
2016-12-18T04:57:22.538Z,4.27
2016-12-18T04:58:33.313Z,4.22
2016-12-18T04:59:44.036Z,4.24
2016-12-18T05:00:54.822Z,4.2
2016-12-18T05:02:05.543Z,4.25
2016-12-18T05:03:16.571Z,4.24
2016-12-18T05:04:27.317Z,4.31
2016-12-18T05:05:38.035Z,4.32
2016-12-18T05:06:48.737Z,4.27
2016-12-18T05:07:59.454Z,4.31
2016-12-18T05:09:10.201Z,4.3
2016-12-18T05:10:20.926Z,4.3
2016-12-18T05:11:31.649Z,4.27
2016-12-18T05:12:42.392Z,4.3
2016-12-18T05:13:53.136Z,4.31
2016-12-18T05:15:03.877Z,4.32
2016-12-18T05:16:14.595Z,4.22
2016-12-18T05:17:25.326Z,4.36
2016-12-18T05:18:36.062Z,4.3
2016-12-18T05:19:46.794Z,4.25
2016-12-18T05:20:57.517Z,4.31
2016-12-18T05:22:08.254Z,4.39
2016-12-18T05:23:18.955Z,4.2
2016-12-18T05:24:29.670Z,4.34
2016-12-18T05:25:40.394Z,4.32
2016-12-18T05:26:51.109Z,4.27
2016-12-18T05:28:01.842Z,4.36
2016-12-18T05:29:12.579Z,4.27
2016-12-18T05:30:23.308Z,4.36
2016-12-18T05:31:34.018Z,4.27
2016-12-18T05:32:44.751Z,4.31
2016-12-18T05:33:55.475Z,4.3
2016-12-18T05:35:06.207Z,4.34
2016-12-18T05:36:16.952Z,4.36
2016-12-18T05:37:27.683Z,4.32
2016-12-18T05:38:38.407Z,4.39
2016-12-18T05:39:49.169Z,4.34
2016-12-18T05:40:59.914Z,4.36
2016-12-18T05:42:10.642Z,4.38
2016-12-18T05:43:21.357Z,4.3
2016-12-18T05:44:32.079Z,4.3
2016-12-18T05:45:42.798Z,4.32
2016-12-18T05:46:53.517Z,4.42
2016-12-18T05:48:04.250Z,4.43
2016-12-18T05:49:14.987Z,4.32
2016-12-18T05:50:25.705Z,4.39
2016-12-18T05:51:36.429Z,4.4
2016-12-18T05:52:47.175Z,4.4
2016-12-18T05:53:57.930Z,4.39
2016-12-18T05:55:08.642Z,4.4
2016-12-18T05:56:19.360Z,4.4
2016-12-18T05:57:30.069Z,4.45
2016-12-18T05:58:40.809Z,4.4
2016-12-18T05:59:51.534Z,4.39
2016-12-18T06:01:02.279Z,4.4
2016-12-18T06:02:12.997Z,4.39
2016-12-18T06:03:23.741Z,4.39
2016-12-18T06:04:34.461Z,4.39
2016-12-18T06:05:45.185Z,4.38
2016-12-18T06:06:55.899Z,4.38
2016-12-18T06:08:06.633Z,4.45
2016-12-18T06:09:17.354Z,4.49
2016-12-18T06:10:28.065Z,4.42
2016-12-18T06:11:38.795Z,4.45
2016-12-18T06:12:49.529Z,4.49
2016-12-18T06:14:00.250Z,4.49
2016-12-18T06:15:10.971Z,4.46
2016-12-18T06:16:21.692Z,4.45
2016-12-18T06:17:32.413Z,4.56
2016-12-18T06:18:43.141Z,4.45
2016-12-18T06:19:53.855Z,4.45
2016-12-18T06:21:04.577Z,4.46
2016-12-18T06:22:15.300Z,4.49
2016-12-18T06:23:26.050Z,4.49
2016-12-18T06:24:36.766Z,4.5
2016-12-18T06:25:47.511Z,4.53
2016-12-18T06:26:58.263Z,4.46
2016-12-18T06:28:09.005Z,4.49
2016-12-18T06:29:19.730Z,4.49
2016-12-18T06:30:30.479Z,4.5
2016-12-18T06:31:41.225Z,4.49
2016-12-18T06:32:51.995Z,4.5
2016-12-18T06:34:02.739Z,4.43
2016-12-18T06:35:13.451Z,4.49
2016-12-18T06:36:24.177Z,4.52
2016-12-18T06:37:34.905Z,4.5
2016-12-18T06:38:45.650Z,4.5
2016-12-18T06:39:56.360Z,4.5
2016-12-18T06:41:07.107Z,4.57
2016-12-18T06:42:17.835Z,4.57
2016-12-18T06:43:28.573Z,4.52
2016-12-18T06:44:39.295Z,4.56
2016-12-18T06:45:50.028Z,4.57
2016-12-18T06:47:00.746Z,4.49
2016-12-18T06:48:11.486Z,4.49
2016-12-18T06:49:22.214Z,4.52
2016-12-18T06:50:32.933Z,4.58
2016-12-18T06:51:43.656Z,4.56
2016-12-18T06:52:54.378Z,4.52
2016-12-18T06:54:05.098Z,4.56
2016-12-18T06:55:15.791Z,4.57
2016-12-18T06:56:26.529Z,4.57
2016-12-18T06:57:37.258Z,4.64
2016-12-18T06:58:47.979Z,4.53
2016-12-18T06:59:58.680Z,4.49
2016-12-18T07:01:09.423Z,4.52
2016-12-18T07:02:20.162Z,4.58
2016-12-18T07:03:30.933Z,4.61
2016-12-18T07:04:41.679Z,4.57
2016-12-18T07:05:52.408Z,4.56
2016-12-18T07:07:03.175Z,4.61
2016-12-18T07:08:13.872Z,4.57
2016-12-18T07:09:24.570Z,4.63
2016-12-18T07:10:35.288Z,4.61
2016-12-18T07:11:46.038Z,4.61
2016-12-18T07:12:56.748Z,4.6
2016-12-18T07:14:07.498Z,4.63
2016-12-18T07:15:18.225Z,4.57
2016-12-18T07:16:28.944Z,4.64
2016-12-18T07:17:39.669Z,4.63
2016-12-18T07:18:50.403Z,4.61
2016-12-18T07:20:01.123Z,4.63
2016-12-18T07:21:11.848Z,4.64
2016-12-18T07:22:22.593Z,4.67
2016-12-18T07:23:33.365Z,4.66
2016-12-18T07:24:44.100Z,4.6
2016-12-18T07:25:54.839Z,4.64
2016-12-18T07:27:05.578Z,4.61
2016-12-18T07:28:16.303Z,4.56
2016-12-18T07:29:27.030Z,4.57
2016-12-18T07:30:37.766Z,4.56
2016-12-18T07:31:48.491Z,4.61
2016-12-18T07:32:59.236Z,4.61
2016-12-18T07:34:10.236Z,4.64
2016-12-18T07:35:20.979Z,4.61
2016-12-18T07:36:31.702Z,4.64
2016-12-18T07:37:42.442Z,4.61
2016-12-18T07:38:53.162Z,4.58
2016-12-18T07:40:03.867Z,4.61
2016-12-18T07:41:14.600Z,4.63
2016-12-18T07:42:25.329Z,4.6
2016-12-18T07:43:36.051Z,4.7
2016-12-18T07:44:46.764Z,4.68
2016-12-18T07:45:57.535Z,4.63
2016-12-18T07:47:08.288Z,4.71
2016-12-18T07:48:19.026Z,4.68
2016-12-18T07:49:29.776Z,4.7
2016-12-18T07:50:40.543Z,4.74
2016-12-18T07:51:51.254Z,4.74
2016-12-18T07:53:02.035Z,4.75
2016-12-18T07:54:12.767Z,4.76
2016-12-18T07:55:23.530Z,4.68
2016-12-18T07:56:34.272Z,4.83
2016-12-18T07:57:44.998Z,4.78
2016-12-18T07:58:55.715Z,4.78
2016-12-18T08:00:06.435Z,4.76
2016-12-18T08:01:17.206Z,4.71
2016-12-18T08:02:27.930Z,4.68
2016-12-18T08:03:38.648Z,4.79
2016-12-18T08:04:49.382Z,4.79
2016-12-18T08:06:00.097Z,4.84
2016-12-18T08:07:10.835Z,4.86
2016-12-18T08:08:21.564Z,4.89
2016-12-18T08:09:32.276Z,4.9
2016-12-18T08:10:43.031Z,4.79
2016-12-18T08:11:53.753Z,4.89
2016-12-18T08:13:04.468Z,4.83
2016-12-18T08:14:15.213Z,4.86
2016-12-18T08:15:25.944Z,4.82
2016-12-18T08:16:36.663Z,4.89
2016-12-18T08:17:47.399Z,4.9
2016-12-18T08:18:58.103Z,4.89
2016-12-18T08:20:08.840Z,4.87
2016-12-18T08:21:19.587Z,4.86
2016-12-18T08:22:30.282Z,4.95
2016-12-18T08:23:40.990Z,4.94
2016-12-18T08:24:51.699Z,4.89
2016-12-18T08:26:02.425Z,4.94
2016-12-18T08:27:13.191Z,4.94
2016-12-18T08:28:23.920Z,4.92
2016-12-18T08:29:34.645Z,4.92
2016-12-18T08:30:45.362Z,4.95
2016-12-18T08:31:56.084Z,4.95
2016-12-18T08:33:06.829Z,4.9
2016-12-18T08:34:17.550Z,4.92
2016-12-18T08:35:28.550Z,4.95
2016-12-18T08:36:39.284Z,4.98
2016-12-18T08:37:50.009Z,4.94
2016-12-18T08:39:00.738Z,4.97
2016-12-18T08:40:11.476Z,5.01
2016-12-18T08:41:22.194Z,4.97
2016-12-18T08:42:32.898Z,4.95
2016-12-18T08:43:43.644Z,4.98
2016-12-18T08:44:54.361Z,4.95
2016-12-18T08:46:05.061Z,5.02
2016-12-18T08:47:15.782Z,5
2016-12-18T08:48:26.507Z,4.9
2016-12-18T08:49:37.255Z,4.95
2016-12-18T08:50:47.996Z,4.97
2016-12-18T08:51:58.733Z,5.04
2016-12-18T08:53:09.483Z,5.04
2016-12-18T08:54:20.201Z,5.02
2016-12-18T08:55:30.921Z,5.07
2016-12-18T08:56:41.655Z,4.98
2016-12-18T08:57:52.372Z,5.07
2016-12-18T08:59:03.117Z,5
2016-12-18T09:00:13.856Z,4.97
2016-12-18T09:01:24.586Z,5
2016-12-18T09:02:35.285Z,5.08
2016-12-18T09:03:46.027Z,5.01
2016-12-18T09:04:56.751Z,5.07
2016-12-18T09:06:07.487Z,5.02
2016-12-18T09:07:18.208Z,5.13
2016-12-18T09:08:28.940Z,5.07
2016-12-18T09:09:39.674Z,5.1
2016-12-18T09:10:50.379Z,5.13
2016-12-18T09:12:01.097Z,5.12
2016-12-18T09:13:11.823Z,5.15
2016-12-18T09:14:22.570Z,5.2
2016-12-18T09:15:33.305Z,5.19
2016-12-18T09:16:44.011Z,5.18
2016-12-18T09:17:54.775Z,5.19
2016-12-18T09:19:05.506Z,5.19
2016-12-18T09:20:16.250Z,5.25
2016-12-18T09:21:26.971Z,5.25
2016-12-18T09:22:37.709Z,5.25
2016-12-18T09:23:48.441Z,5.22
2016-12-18T09:24:59.174Z,5.29
2016-12-18T09:26:09.925Z,5.31
2016-12-18T09:27:20.624Z,5.23
2016-12-18T09:28:31.319Z,5.36
2016-12-18T09:29:42.061Z,5.36
2016-12-18T09:30:52.789Z,5.36
2016-12-18T09:32:03.524Z,5.33
2016-12-18T09:33:14.229Z,5.37
2016-12-18T09:34:24.953Z,5.38
2016-12-18T09:35:35.972Z,5.52
2016-12-18T09:36:46.713Z,5.51
2016-12-18T09:37:57.433Z,5.52
2016-12-18T09:39:08.139Z,5.49
2016-12-18T09:40:18.875Z,5.46
2016-12-18T09:41:29.604Z,5.4
2016-12-18T09:42:40.326Z,5.46
2016-12-18T09:43:51.064Z,5.46
2016-12-18T09:45:01.833Z,5.52
2016-12-18T09:46:12.564Z,5.51
2016-12-18T09:47:23.303Z,5.47
2016-12-18T09:48:34.020Z,5.46
2016-12-18T09:49:44.749Z,5.46
2016-12-18T09:50:55.465Z,5.44
2016-12-18T09:52:06.236Z,5.47
2016-12-18T09:53:16.958Z,5.47
2016-12-18T09:54:27.975Z,5.52
2016-12-18T09:55:38.721Z,5.52
2016-12-18T09:56:49.430Z,5.61
2016-12-18T09:58:00.166Z,5.59
2016-12-18T09:59:10.888Z,5.59
2016-12-18T10:00:21.633Z,5.56
2016-12-18T10:01:32.334Z,5.59
2016-12-18T10:02:43.051Z,5.62
2016-12-18T10:03:53.780Z,5.58
2016-12-18T10:05:04.504Z,5.55
2016-12-18T10:06:15.235Z,5.55
2016-12-18T10:07:25.968Z,5.56
2016-12-18T10:08:36.714Z,5.65
2016-12-18T10:09:47.452Z,5.65
2016-12-18T10:10:58.178Z,5.67
2016-12-18T10:12:09.177Z,5.62
2016-12-18T10:13:19.911Z,5.64
2016-12-18T10:14:30.641Z,5.61
2016-12-18T10:15:41.365Z,5.64
2016-12-18T10:16:52.100Z,5.65
2016-12-18T10:18:02.834Z,5.64
2016-12-18T10:19:13.570Z,5.64
2016-12-18T10:20:24.313Z,5.67
2016-12-18T10:21:35.062Z,5.73
2016-12-18T10:22:45.790Z,5.77
2016-12-18T10:23:56.529Z,5.8
2016-12-18T10:25:07.255Z,5.76
2016-12-18T10:26:18.018Z,5.76
2016-12-18T10:27:28.793Z,5.83
2016-12-18T10:28:39.495Z,5.74
2016-12-18T10:29:50.234Z,5.83
2016-12-18T10:31:00.985Z,5.83
2016-12-18T10:32:11.705Z,5.84
2016-12-18T10:33:22.454Z,5.84
2016-12-18T10:34:33.203Z,5.83
2016-12-18T10:35:43.943Z,5.84
2016-12-18T10:36:54.668Z,5.81
2016-12-18T10:38:05.414Z,5.87
2016-12-18T10:39:16.465Z,5.9
2016-12-18T10:40:27.198Z,5.88
2016-12-18T10:41:37.927Z,5.87
2016-12-18T10:42:48.690Z,5.87
2016-12-18T10:43:59.437Z,5.88
2016-12-18T10:45:10.187Z,5.88
2016-12-18T10:46:20.928Z,5.98
2016-12-18T10:47:31.649Z,5.88
2016-12-18T10:48:42.379Z,5.92
2016-12-18T10:49:53.125Z,5.88
2016-12-18T10:51:03.875Z,5.92
2016-12-18T10:52:14.609Z,5.95
2016-12-18T10:53:25.333Z,5.91
2016-12-18T10:54:36.057Z,5.91
2016-12-18T10:55:46.796Z,5.92
2016-12-18T10:56:57.574Z,5.91
2016-12-18T10:58:08.312Z,5.94
2016-12-18T10:59:19.010Z,5.9
2016-12-18T11:00:29.731Z,5.92
2016-12-18T11:01:40.455Z,5.88
2016-12-18T11:02:51.179Z,5.91
2016-12-18T11:04:01.926Z,5.87
2016-12-18T11:05:12.946Z,5.97
2016-12-18T11:06:23.664Z,5.87
2016-12-18T11:07:34.414Z,5.9
2016-12-18T11:08:45.152Z,5.98
2016-12-18T11:09:55.856Z,5.91
2016-12-18T11:11:06.603Z,5.94
2016-12-18T11:12:17.368Z,5.97
2016-12-18T11:13:28.090Z,5.83
2016-12-18T11:14:38.810Z,5.95
2016-12-18T11:15:49.524Z,6.01
2016-12-18T11:17:00.254Z,5.91
2016-12-18T11:18:10.977Z,5.98
2016-12-18T11:19:21.689Z,5.99
2016-12-18T11:20:32.417Z,6.07
2016-12-18T11:21:43.154Z,6.07
2016-12-18T11:22:53.881Z,6.05
2016-12-18T11:24:04.607Z,5.97
2016-12-18T11:25:15.341Z,5.99
2016-12-18T11:26:26.065Z,6.06
2016-12-18T11:27:37.093Z,6.06
2016-12-18T11:28:48.118Z,6.06
2016-12-18T11:29:58.833Z,6.06
2016-12-18T11:31:09.554Z,6.05
2016-12-18T11:32:20.297Z,6.1
2016-12-18T11:33:31.320Z,6.1
2016-12-18T11:34:42.033Z,6.06
2016-12-18T11:35:52.783Z,6.1
2016-12-18T11:37:03.510Z,6.06
2016-12-18T11:38:14.250Z,5.98
2016-12-18T11:39:24.996Z,6.13
2016-12-18T11:40:35.741Z,6.06
2016-12-18T11:41:46.485Z,6.06
2016-12-18T11:42:57.206Z,6.01
2016-12-18T11:44:07.927Z,6.07
2016-12-18T11:45:18.661Z,6.09
2016-12-18T11:46:29.446Z,6.05
2016-12-18T11:47:40.193Z,6.05
2016-12-18T11:48:50.940Z,6.05
2016-12-18T11:50:01.667Z,6.13
2016-12-18T11:51:12.389Z,6.05
2016-12-18T11:52:23.123Z,6.07
2016-12-18T11:53:33.834Z,6.1
2016-12-18T11:54:44.557Z,6.07
2016-12-18T11:55:55.286Z,6.15
2016-12-18T11:57:06.015Z,6.07
2016-12-18T11:58:16.732Z,6.12
2016-12-18T11:59:27.478Z,6.25
2016-12-18T12:00:38.199Z,6.25
2016-12-18T12:01:48.946Z,6.15
2016-12-18T12:02:59.687Z,6.22
2016-12-18T12:04:10.416Z,6.09
2016-12-18T12:05:21.130Z,6.2
2016-12-18T12:06:31.901Z,6.15
2016-12-18T12:07:42.658Z,6.16
2016-12-18T12:08:53.421Z,6.2
2016-12-18T12:10:04.140Z,6.17
2016-12-18T12:11:15.460Z,6.15
2016-12-18T12:12:26.190Z,6.17
2016-12-18T12:13:36.889Z,6.12
2016-12-18T12:14:47.632Z,6.22
2016-12-18T12:15:58.369Z,6.17
2016-12-18T12:17:09.120Z,6.19
2016-12-18T12:18:19.843Z,6.22
2016-12-18T12:19:30.569Z,6.19
2016-12-18T12:20:41.314Z,6.2
2016-12-18T12:21:52.049Z,6.16
2016-12-18T12:23:02.795Z,6.26
2016-12-18T12:24:13.542Z,6.19
2016-12-18T12:25:24.270Z,6.19
2016-12-18T12:26:35.012Z,6.19
2016-12-18T12:27:45.764Z,6.2
2016-12-18T12:28:56.500Z,6.28
2016-12-18T12:30:07.250Z,6.25
2016-12-18T12:31:17.950Z,6.26
2016-12-18T12:32:28.692Z,6.22
2016-12-18T12:33:39.410Z,6.26
2016-12-18T12:34:50.161Z,6.22
2016-12-18T12:36:00.884Z,6.31
2016-12-18T12:37:11.610Z,6.35
2016-12-18T12:38:22.380Z,6.38
2016-12-18T12:39:33.115Z,6.39
2016-12-18T12:40:43.844Z,6.28
2016-12-18T12:41:54.543Z,6.36
2016-12-18T12:43:05.286Z,6.34
2016-12-18T12:44:16.008Z,6.39
2016-12-18T12:45:26.753Z,6.43
2016-12-18T12:46:37.470Z,6.47
2016-12-18T12:47:48.200Z,6.44
2016-12-18T12:48:58.975Z,6.52
2016-12-18T12:50:09.714Z,6.44
2016-12-18T12:51:20.451Z,6.52
2016-12-18T12:52:31.200Z,6.5
2016-12-18T12:53:41.954Z,6.52
2016-12-18T12:54:52.692Z,6.44
2016-12-18T12:56:03.438Z,6.47
2016-12-18T12:57:14.159Z,6.47
2016-12-18T12:58:24.909Z,6.49
2016-12-18T12:59:35.622Z,6.56
2016-12-18T13:00:46.373Z,6.56
2016-12-18T13:01:57.118Z,6.52
2016-12-18T13:03:07.864Z,6.52
2016-12-18T13:04:18.607Z,6.52
2016-12-18T13:05:29.356Z,6.64
2016-12-18T13:06:40.099Z,6.57
2016-12-18T13:07:50.830Z,6.6
2016-12-18T13:09:01.565Z,6.64
2016-12-18T13:10:12.286Z,6.62
2016-12-18T13:11:23.011Z,6.56
2016-12-18T13:12:33.757Z,6.57
2016-12-18T13:13:44.479Z,6.56
2016-12-18T13:14:55.207Z,6.62
2016-12-18T13:16:05.941Z,6.56
2016-12-18T13:17:16.688Z,6.6
2016-12-18T13:18:27.433Z,6.6
2016-12-18T13:19:38.192Z,6.57
2016-12-18T13:20:48.959Z,6.7
2016-12-18T13:21:59.683Z,6.71
2016-12-18T13:23:10.408Z,6.68
2016-12-18T13:24:21.128Z,6.68
2016-12-18T13:25:31.867Z,6.65
2016-12-18T13:26:42.606Z,6.71
2016-12-18T13:27:53.343Z,6.75
2016-12-18T13:29:04.080Z,6.71
2016-12-18T13:30:14.823Z,6.78
2016-12-18T13:31:25.568Z,6.74
2016-12-18T13:32:36.311Z,6.74
2016-12-18T13:33:47.082Z,6.74
2016-12-18T13:34:57.837Z,6.74
2016-12-18T13:36:08.573Z,6.74
2016-12-18T13:37:19.307Z,6.71
2016-12-18T13:38:30.027Z,6.71
2016-12-18T13:39:40.789Z,6.74
2016-12-18T13:40:51.514Z,6.75
2016-12-18T13:42:02.236Z,6.77
2016-12-18T13:43:12.981Z,6.74
2016-12-18T13:44:23.696Z,6.75
2016-12-18T13:45:34.416Z,6.77
2016-12-18T13:46:45.161Z,6.75
2016-12-18T13:47:55.894Z,6.78
2016-12-18T13:49:06.631Z,6.75
2016-12-18T13:50:17.374Z,6.72
2016-12-18T13:51:28.109Z,6.68
2016-12-18T13:52:38.849Z,6.67
2016-12-18T13:53:49.588Z,6.77
2016-12-18T13:55:00.319Z,6.68
2016-12-18T13:56:11.054Z,6.67
2016-12-18T13:57:21.803Z,6.65
2016-12-18T13:58:32.545Z,6.59
2016-12-18T13:59:43.297Z,6.68
2016-12-18T14:00:54.018Z,6.65
2016-12-18T14:02:04.718Z,6.74
2016-12-18T14:03:15.439Z,6.67
2016-12-18T14:04:26.152Z,6.71
2016-12-18T14:05:36.901Z,6.64
2016-12-18T14:06:47.625Z,6.67
2016-12-18T14:07:58.364Z,6.71
2016-12-18T14:09:09.097Z,6.7
2016-12-18T14:10:19.834Z,6.7
2016-12-18T14:11:30.863Z,6.59
2016-12-18T14:12:41.597Z,6.71
2016-12-18T14:13:52.331Z,6.67
2016-12-18T14:15:03.074Z,6.68
2016-12-18T14:16:13.799Z,6.68
2016-12-18T14:17:24.514Z,6.74
2016-12-18T14:18:35.253Z,6.7
2016-12-18T14:19:46.006Z,6.68
2016-12-18T14:20:56.727Z,6.68
2016-12-18T14:22:07.494Z,6.68
2016-12-18T14:23:18.194Z,6.67
2016-12-18T14:24:28.940Z,6.72
2016-12-18T14:25:39.665Z,6.77
2016-12-18T14:26:50.403Z,6.67
2016-12-18T14:28:01.131Z,6.7
2016-12-18T14:29:11.878Z,6.74
2016-12-18T14:30:22.641Z,6.75
2016-12-18T14:31:33.383Z,6.64
2016-12-18T14:32:44.115Z,6.71
2016-12-18T14:33:54.840Z,6.75
2016-12-18T14:35:05.879Z,6.74
2016-12-18T14:36:16.596Z,6.75
2016-12-18T14:37:27.314Z,6.7
2016-12-18T14:38:38.046Z,6.71
2016-12-18T14:39:48.784Z,6.72
2016-12-18T14:40:59.492Z,6.74
2016-12-18T14:42:10.235Z,6.67
2016-12-18T14:43:20.972Z,6.74
2016-12-18T14:44:31.715Z,6.68
2016-12-18T14:45:42.420Z,6.7
2016-12-18T14:46:53.146Z,6.77
2016-12-18T14:48:03.877Z,6.78
2016-12-18T14:49:14.606Z,6.82
2016-12-18T14:50:25.344Z,6.8
2016-12-18T14:51:36.068Z,6.75
2016-12-18T14:52:47.121Z,6.74
2016-12-18T14:53:57.869Z,6.74
2016-12-18T14:55:08.603Z,6.72
2016-12-18T14:56:19.335Z,6.8
2016-12-18T14:57:30.078Z,6.65
2016-12-18T14:58:40.794Z,6.71
2016-12-18T14:59:51.536Z,6.72
2016-12-18T15:01:02.266Z,6.7
2016-12-18T15:02:12.987Z,6.67
2016-12-18T15:03:23.729Z,6.65
2016-12-18T15:04:34.450Z,6.65
2016-12-18T15:05:45.179Z,6.67
2016-12-18T15:06:55.913Z,6.59
2016-12-18T15:08:06.662Z,6.6
2016-12-18T15:09:17.388Z,6.65
2016-12-18T15:10:28.091Z,6.6
2016-12-18T15:11:38.833Z,6.57
2016-12-18T15:12:49.572Z,6.64
2016-12-18T15:14:00.325Z,6.54
2016-12-18T15:15:11.067Z,6.62
2016-12-18T15:16:21.781Z,6.59
2016-12-18T15:17:32.517Z,6.54
2016-12-18T15:18:43.248Z,6.65
2016-12-18T15:19:53.978Z,6.62
2016-12-18T15:21:04.727Z,6.62
2016-12-18T15:22:15.446Z,6.6
2016-12-18T15:23:26.157Z,6.6
2016-12-18T15:24:36.881Z,6.57
2016-12-18T15:25:47.632Z,6.57
2016-12-18T15:26:58.369Z,6.6
2016-12-18T15:28:09.107Z,6.68
2016-12-18T15:29:19.820Z,6.53
2016-12-18T15:30:30.562Z,6.53
2016-12-18T15:31:41.308Z,6.43
2016-12-18T15:32:52.024Z,6.5
2016-12-18T15:34:02.771Z,6.49
2016-12-18T15:35:13.528Z,6.47
2016-12-18T15:36:24.252Z,6.47
2016-12-18T15:37:35.020Z,6.39
2016-12-18T15:38:45.739Z,6.28
2016-12-18T15:39:56.458Z,6.29
2016-12-18T15:41:07.196Z,6.17
2016-12-18T15:42:18.001Z,6.17
2016-12-18T15:43:28.739Z,6.28
2016-12-18T15:44:39.447Z,6.28